createdAt,value
2022-08-26T00:01:51.796Z,6.90
2022-08-26T00:04:19.078Z,7.13
2022-08-26T00:06:46.021Z,6.83
2022-08-26T00:09:13.828Z,6.70
2022-08-26T00:11:44.036Z,7.10
2022-08-26T00:14:11.439Z,8.43
2022-08-26T00:16:40.953Z,8.43
2022-08-26T00:19:08.634Z,8.40
2022-08-26T00:21:35.772Z,9.30
2022-08-26T00:24:04.501Z,9.37
2022-08-26T00:26:33.738Z,10.53
2022-08-26T00:29:00.380Z,10.33
2022-08-26T00:31:27.299Z,12.40
2022-08-26T00:33:54.045Z,13.77
2022-08-26T00:36:22.622Z,14.53
2022-08-26T00:38:49.835Z,13.93
2022-08-26T00:41:19.192Z,15.93
2022-08-26T00:43:47.960Z,15.57
2022-08-26T00:46:20.720Z,15.13
2022-08-26T00:48:50.508Z,17.97
2022-08-26T00:51:21.834Z,18.70
2022-08-26T00:53:57.456Z,19.73
2022-08-26T00:56:33.486Z,20.87
2022-08-26T00:59:05.198Z,18.83
2022-08-26T01:01:32.234Z,19.83
2022-08-26T01:04:00.955Z,21.73
2022-08-26T01:06:28.561Z,24.83
2022-08-26T01:08:56.185Z,25.50
2022-08-26T01:11:24.802Z,25.17
2022-08-26T01:13:54.879Z,28.20
2022-08-26T01:16:22.592Z,24.20
2022-08-26T01:18:49.247Z,28.50
2022-08-26T01:21:21.012Z,27.80
2022-08-26T01:23:51.633Z,28.17
2022-08-26T01:26:41.373Z,32.67
2022-08-26T01:29:12.879Z,34.50
2022-08-26T01:31:44.075Z,37.83
2022-08-26T01:34:18.741Z,32.03
2022-08-26T01:36:51.371Z,33.43
2022-08-26T01:39:19.330Z,38.83
2022-08-26T01:41:46.613Z,38.17
2022-08-26T01:44:19.735Z,36.60
2022-08-26T01:46:50.737Z,40.60
2022-08-26T01:49:19.443Z,41.03
2022-08-26T01:51:47.995Z,39.70
2022-08-26T01:54:16.037Z,36.60
2022-08-26T01:56:42.985Z,38.10
2022-08-26T01:59:14.512Z,37.63
2022-08-26T02:01:41.787Z,39.20
2022-08-26T02:04:33.281Z,41.23
2022-08-26T02:07:04.329Z,41.83
2022-08-26T02:09:31.004Z,42.20
2022-08-26T02:12:00.756Z,42.10
2022-08-26T02:14:33.111Z,41.77
2022-08-26T02:17:04.674Z,40.53
2022-08-26T02:19:38.734Z,42.10
2022-08-26T02:22:11.555Z,39.67
2022-08-26T02:24:50.303Z,41.67
2022-08-26T02:27:23.765Z,42.70
2022-08-26T02:30:00.439Z,38.90
2022-08-26T02:32:27.866Z,36.03
2022-08-26T02:34:54.620Z,39.23
2022-08-26T02:37:22.514Z,37.57
2022-08-26T02:39:49.756Z,34.27
2022-08-26T02:42:16.360Z,35.80
2022-08-26T02:44:43.031Z,34.23
2022-08-26T02:47:13.838Z,31.17
2022-08-26T02:49:43.106Z,36.10
2022-08-26T02:52:11.911Z,39.17
2022-08-26T02:54:39.261Z,32.50
2022-08-26T02:57:06.192Z,37.07
2022-08-26T02:59:35.984Z,38.17
2022-08-26T03:02:03.276Z,40.13
2022-08-26T03:04:33.446Z,36.10
2022-08-26T03:07:00.331Z,37.63
2022-08-26T03:09:27.357Z,36.07
2022-08-26T03:11:55.518Z,36.47
2022-08-26T03:14:24.072Z,33.60
2022-08-26T03:16:54.054Z,33.27
2022-08-26T03:19:23.903Z,35.00
2022-08-26T03:21:52.417Z,35.63
2022-08-26T03:24:19.881Z,34.50
2022-08-26T03:26:52.779Z,31.20
2022-08-26T03:29:38.687Z,33.10
2022-08-26T03:32:06.204Z,29.27
2022-08-26T03:34:33.268Z,29.53
2022-08-26T03:37:00.024Z,30.57
2022-08-26T03:39:27.175Z,28.30
2022-08-26T03:41:55.173Z,27.03
2022-08-26T03:44:21.907Z,29.53
2022-08-26T03:46:48.579Z,24.90
2022-08-26T03:49:15.689Z,26.93
2022-08-26T03:51:42.275Z,28.87
2022-08-26T03:54:08.918Z,29.60
2022-08-26T03:56:37.206Z,28.17
2022-08-26T03:59:07.602Z,24.77
2022-08-26T04:01:34.997Z,25.57
2022-08-26T04:04:01.872Z,24.47
2022-08-26T04:06:37.013Z,26.10
2022-08-26T04:09:07.289Z,26.03
2022-08-26T04:11:38.620Z,25.60
2022-08-26T04:14:14.286Z,25.13
2022-08-26T04:16:45.850Z,24.10
2022-08-26T04:19:15.538Z,22.67
2022-08-26T04:21:42.760Z,22.50
2022-08-26T04:24:12.177Z,23.80
2022-08-26T04:26:42.828Z,21.53
2022-08-26T04:29:20.014Z,22.83
2022-08-26T04:31:48.220Z,24.10
2022-08-26T04:34:15.557Z,21.03
2022-08-26T04:36:43.203Z,20.57
2022-08-26T04:39:18.615Z,21.93
2022-08-26T04:41:48.569Z,20.77
2022-08-26T04:44:16.501Z,23.00
2022-08-26T04:46:44.184Z,21.83
2022-08-26T04:49:11.421Z,22.23
2022-08-26T04:51:39.147Z,21.27
2022-08-26T04:54:07.293Z,22.20
2022-08-26T04:56:37.662Z,22.27
2022-08-26T04:59:06.520Z,22.27
2022-08-26T05:01:35.040Z,22.27
2022-08-26T05:04:06.167Z,22.93
2022-08-26T05:06:37.046Z,24.77
2022-08-26T05:09:04.594Z,22.93
2022-08-26T05:11:31.363Z,23.07
2022-08-26T05:14:02.180Z,21.57
2022-08-26T05:16:30.628Z,24.47
2022-08-26T05:18:57.577Z,24.50
2022-08-26T05:21:27.250Z,25.30
2022-08-26T05:23:57.029Z,24.37
2022-08-26T05:26:26.188Z,23.47
2022-08-26T05:28:54.935Z,23.63
2022-08-26T05:31:32.750Z,22.33
2022-08-26T05:34:01.035Z,22.77
2022-08-26T05:36:33.303Z,22.87
2022-08-26T05:39:00.641Z,22.97
2022-08-26T05:41:36.262Z,22.20
2022-08-26T05:44:06.214Z,24.80
2022-08-26T05:46:34.430Z,23.13
2022-08-26T05:49:01.715Z,23.87
2022-08-26T05:51:30.512Z,22.47
2022-08-26T05:53:58.296Z,21.03
2022-08-26T05:56:26.197Z,23.33
2022-08-26T05:58:53.876Z,21.73
2022-08-26T06:01:26.241Z,19.13
2022-08-26T06:03:55.299Z,16.90
2022-08-26T06:06:29.859Z,16.73
2022-08-26T06:08:59.384Z,17.17
2022-08-26T06:11:27.666Z,16.87
2022-08-26T06:13:58.930Z,18.30
2022-08-26T06:16:28.647Z,18.70
2022-08-26T06:18:55.642Z,17.73
2022-08-26T06:21:28.329Z,17.77
2022-08-26T06:24:27.093Z,20.10
2022-08-26T06:26:57.253Z,20.63
2022-08-26T06:29:25.925Z,19.00
2022-08-26T06:31:54.235Z,19.77
2022-08-26T06:34:23.471Z,20.27
2022-08-26T06:36:58.664Z,19.00
2022-08-26T06:39:25.507Z,18.57
2022-08-26T06:41:52.226Z,17.13
2022-08-26T06:44:19.152Z,19.70
2022-08-26T06:46:46.333Z,15.70
2022-08-26T06:49:17.747Z,17.43
2022-08-26T06:51:44.586Z,18.27
2022-08-26T06:54:11.521Z,18.37
2022-08-26T06:56:41.737Z,19.40
2022-08-26T06:59:09.270Z,21.50
2022-08-26T07:01:42.838Z,20.27
2022-08-26T07:04:11.280Z,18.07
2022-08-26T07:06:40.608Z,20.47
2022-08-26T07:09:10.078Z,20.50
2022-08-26T07:11:38.452Z,21.80
2022-08-26T07:14:06.214Z,23.37
2022-08-26T07:16:33.527Z,21.00
2022-08-26T07:19:03.292Z,19.00
2022-08-26T07:21:30.306Z,19.80
2022-08-26T07:24:01.297Z,18.70
2022-08-26T07:26:29.683Z,16.83
2022-08-26T07:28:58.315Z,18.07
2022-08-26T07:31:28.501Z,18.33
2022-08-26T07:33:56.822Z,17.43
2022-08-26T07:36:24.767Z,17.80
2022-08-26T07:38:52.750Z,16.47
2022-08-26T07:41:22.956Z,13.97
2022-08-26T07:43:50.885Z,13.23
2022-08-26T07:46:20.775Z,13.63
2022-08-26T07:48:53.941Z,12.87
2022-08-26T07:51:21.918Z,12.80
2022-08-26T07:53:52.428Z,10.87
2022-08-26T07:56:19.663Z,11.47
2022-08-26T07:58:50.520Z,11.40
2022-08-26T08:01:18.603Z,11.07
2022-08-26T08:03:45.505Z,10.50
2022-08-26T08:06:12.164Z,10.20
2022-08-26T08:08:41.406Z,10.63
2022-08-26T08:11:08.087Z,9.17
2022-08-26T08:13:38.450Z,10.30
2022-08-26T08:16:05.796Z,9.10
2022-08-26T08:18:32.641Z,9.57
2022-08-26T08:21:20.938Z,9.13
2022-08-26T08:23:49.041Z,8.33
2022-08-26T08:26:15.762Z,8.03
2022-08-26T08:28:43.645Z,7.23
2022-08-26T08:31:24.705Z,7.83
2022-08-26T08:34:05.564Z,7.20
2022-08-26T08:36:32.243Z,7.43
2022-08-26T08:39:03.081Z,6.10
2022-08-26T08:42:09.059Z,6.67
2022-08-26T08:44:39.565Z,8.37
2022-08-26T08:47:19.334Z,7.37
2022-08-26T08:49:47.531Z,7.40
2022-08-26T08:52:29.843Z,7.20
2022-08-26T08:54:57.224Z,7.80
2022-08-26T08:58:02.537Z,7.17
2022-08-26T09:00:39.840Z,6.10
2022-08-26T09:03:23.597Z,6.33
2022-08-26T09:05:53.478Z,5.63
2022-08-26T09:08:28.410Z,6.13
2022-08-26T09:10:59.215Z,5.43
2022-08-26T09:13:27.448Z,6.67
2022-08-26T09:16:10.358Z,5.43
2022-08-26T09:18:59.287Z,5.20
2022-08-26T09:21:26.947Z,5.20
2022-08-26T09:23:56.822Z,4.40
2022-08-26T09:26:38.616Z,5.37
2022-08-26T09:29:09.197Z,5.33
2022-08-26T09:31:39.202Z,5.27
2022-08-26T09:34:17.440Z,5.10
2022-08-26T09:37:00.729Z,5.53
2022-08-26T09:39:37.483Z,8.40
2022-08-26T09:42:04.660Z,6.97
2022-08-26T09:44:32.124Z,5.60
2022-08-26T09:47:04.051Z,5.00
2022-08-26T09:49:37.678Z,4.60
2022-08-26T09:52:05.570Z,4.50
2022-08-26T09:54:33.975Z,4.43
2022-08-26T09:57:17.876Z,6.10
2022-08-26T09:59:44.586Z,5.13
2022-08-26T10:02:32.306Z,5.00
2022-08-26T10:05:09.120Z,5.30
2022-08-26T10:07:45.106Z,5.40
2022-08-26T10:10:26.246Z,5.23
2022-08-26T10:13:01.208Z,5.33
2022-08-26T10:15:28.250Z,4.73
2022-08-26T10:18:02.330Z,4.33
2022-08-26T10:20:35.830Z,4.03
2022-08-26T10:23:12.651Z,4.40
2022-08-26T10:25:51.437Z,4.30
2022-08-26T10:28:32.302Z,4.43
2022-08-26T10:31:14.986Z,4.27
2022-08-26T10:33:42.639Z,4.80
2022-08-26T10:36:43.075Z,4.90
2022-08-26T10:39:42.964Z,4.33
2022-08-26T10:42:38.104Z,4.97
2022-08-26T10:45:15.158Z,5.87
2022-08-26T10:47:50.194Z,4.47
2022-08-26T10:50:18.924Z,6.40
2022-08-26T10:53:08.774Z,5.60
2022-08-26T10:55:47.332Z,8.30
2022-08-26T10:58:51.341Z,5.90
2022-08-26T11:01:41.922Z,6.20
2022-08-26T11:04:34.974Z,6.03
2022-08-26T11:07:39.214Z,5.40
2022-08-26T11:10:12.932Z,4.87
2022-08-26T11:12:40.115Z,5.63
2022-08-26T11:15:32.659Z,6.27
2022-08-26T11:18:01.589Z,5.30
2022-08-26T11:20:36.377Z,4.40
2022-08-26T11:23:29.156Z,4.17
2022-08-26T11:26:02.079Z,4.27
2022-08-26T11:28:44.177Z,4.63
2022-08-26T11:31:31.786Z,4.83
2022-08-26T11:34:02.554Z,5.37
2022-08-26T11:36:47.768Z,5.00
2022-08-26T11:39:36.970Z,5.00
2022-08-26T11:42:20.429Z,5.07
2022-08-26T11:44:49.530Z,4.97
2022-08-26T11:47:25.016Z,4.67
2022-08-26T11:50:06.994Z,4.00
2022-08-26T11:52:33.565Z,5.00
2022-08-26T11:55:09.236Z,4.90
2022-08-26T11:57:43.548Z,4.57
2022-08-26T12:00:20.923Z,4.93
2022-08-26T12:02:49.791Z,4.23
2022-08-26T12:05:24.044Z,4.23
2022-08-26T12:07:54.573Z,4.07
2022-08-26T12:10:30.104Z,3.60
2022-08-26T12:12:59.281Z,4.03
2022-08-26T12:15:27.904Z,4.37
2022-08-26T12:17:56.400Z,3.90
2022-08-26T12:20:46.314Z,3.80
2022-08-26T12:23:28.037Z,4.20
2022-08-26T12:26:23.363Z,4.03
2022-08-26T12:28:57.544Z,4.00
2022-08-26T12:31:31.771Z,3.70
2022-08-26T12:34:00.949Z,3.77
2022-08-26T12:36:36.537Z,4.03
2022-08-26T12:39:34.129Z,3.67
2022-08-26T12:42:15.841Z,4.63
2022-08-26T12:44:54.100Z,3.93
2022-08-26T12:47:35.179Z,3.83
2022-08-26T12:50:22.313Z,3.97
2022-08-26T12:53:21.371Z,3.30
2022-08-26T12:55:51.630Z,4.07
2022-08-26T12:58:18.158Z,3.70
2022-08-26T13:00:49.411Z,4.63
2022-08-26T13:03:45.754Z,4.47
2022-08-26T13:06:16.315Z,4.50
2022-08-26T13:08:48.018Z,3.20
2022-08-26T13:11:24.755Z,4.00
2022-08-26T13:14:24.073Z,3.53
2022-08-26T13:16:52.330Z,3.23
2022-08-26T13:19:25.453Z,3.50
2022-08-26T13:21:55.412Z,4.00
2022-08-26T13:24:35.426Z,4.30
2022-08-26T13:27:03.538Z,4.20
2022-08-26T13:29:30.186Z,4.17
2022-08-26T13:31:58.174Z,3.50
2022-08-26T13:34:24.829Z,3.37
2022-08-26T13:36:54.656Z,3.30
2022-08-26T13:39:21.422Z,3.33
2022-08-26T13:41:48.669Z,2.87
2022-08-26T13:44:15.437Z,3.07
2022-08-26T13:46:42.149Z,2.47
2022-08-26T13:49:09.521Z,2.90
2022-08-26T13:51:37.748Z,3.03
2022-08-26T13:54:05.433Z,3.90
2022-08-26T13:56:32.943Z,3.30
2022-08-26T13:59:01.215Z,3.47
2022-08-26T14:01:31.198Z,3.40
2022-08-26T14:03:58.389Z,3.30
2022-08-26T14:06:25.302Z,3.50
2022-08-26T14:08:52.057Z,2.87
2022-08-26T14:11:18.880Z,3.40
2022-08-26T14:13:45.546Z,2.90
2022-08-26T14:16:20.317Z,2.77
2022-08-26T14:18:50.596Z,3.13
2022-08-26T14:21:18.456Z,3.33
2022-08-26T14:23:45.282Z,2.90
2022-08-26T14:26:21.448Z,2.93
2022-08-26T14:29:02.580Z,2.93
2022-08-26T14:31:31.801Z,2.77
2022-08-26T14:34:02.516Z,2.60
2022-08-26T14:36:29.280Z,2.43
2022-08-26T14:38:58.400Z,2.20
2022-08-26T14:41:25.534Z,2.40
2022-08-26T14:44:13.905Z,2.13
2022-08-26T14:46:52.522Z,2.07
2022-08-26T14:49:20.725Z,2.60
2022-08-26T14:51:47.649Z,2.13
2022-08-26T14:54:17.886Z,2.30
2022-08-26T14:56:49.470Z,2.10
2022-08-26T14:59:20.764Z,2.13
2022-08-26T15:01:48.346Z,2.10
2022-08-26T15:04:16.245Z,2.30
2022-08-26T15:06:42.899Z,1.93
2022-08-26T15:09:10.268Z,2.20
2022-08-26T15:11:36.940Z,1.73
2022-08-26T15:14:03.934Z,1.90
2022-08-26T15:16:31.172Z,2.73
2022-08-26T15:19:00.878Z,2.20
2022-08-26T15:21:27.466Z,2.30
2022-08-26T15:23:54.506Z,2.50
2022-08-26T15:26:21.910Z,2.20
2022-08-26T15:28:48.618Z,2.40
2022-08-26T15:31:16.303Z,2.40
2022-08-26T15:33:42.924Z,2.37
2022-08-26T15:36:09.983Z,2.30
2022-08-26T15:38:40.230Z,2.77
2022-08-26T15:41:08.690Z,2.50
2022-08-26T15:43:38.786Z,2.57
2022-08-26T15:46:10.921Z,2.30
2022-08-26T15:48:38.467Z,2.83
2022-08-26T15:51:05.933Z,2.43
2022-08-26T15:53:34.824Z,2.73
2022-08-26T15:56:02.186Z,2.47
2022-08-26T15:58:29.775Z,2.47
2022-08-26T16:00:57.426Z,2.70
2022-08-26T16:03:24.472Z,2.40
2022-08-26T16:05:51.578Z,2.73
2022-08-26T16:08:18.985Z,2.30
2022-08-26T16:10:50.421Z,2.40
2022-08-26T16:13:19.038Z,2.00
2022-08-26T16:15:47.560Z,1.97
2022-08-26T16:18:15.710Z,2.13
2022-08-26T16:20:58.557Z,2.30
2022-08-26T16:23:39.919Z,2.33
2022-08-26T16:26:12.039Z,1.90
2022-08-26T16:28:38.754Z,2.33
2022-08-26T16:31:06.383Z,2.20
2022-08-26T16:33:33.104Z,2.40
2022-08-26T16:35:59.791Z,1.90
2022-08-26T16:38:26.372Z,2.20
2022-08-26T16:40:52.937Z,2.13
2022-08-26T16:43:19.468Z,2.53
2022-08-26T16:45:46.136Z,2.70
2022-08-26T16:48:12.690Z,2.47
2022-08-26T16:50:40.809Z,2.50
2022-08-26T16:53:07.958Z,3.17
2022-08-26T16:55:34.791Z,2.20
2022-08-26T16:58:01.785Z,2.80
2022-08-26T17:00:31.874Z,2.80
2022-08-26T17:03:00.417Z,2.47
2022-08-26T17:05:28.269Z,2.70
2022-08-26T17:07:56.526Z,2.40
2022-08-26T17:10:24.284Z,1.90
2022-08-26T17:12:54.432Z,2.30
2022-08-26T17:15:23.764Z,2.00
2022-08-26T17:17:54.793Z,1.83
2022-08-26T17:20:23.532Z,2.27
2022-08-26T17:22:51.845Z,2.20
2022-08-26T17:25:28.905Z,2.43
2022-08-26T17:30:25.868Z,2.43
2022-08-26T17:32:53.875Z,2.10
2022-08-26T17:35:20.980Z,2.60
2022-08-26T17:37:47.853Z,2.00
2022-08-26T17:40:21.955Z,1.77
2022-08-26T17:42:48.787Z,2.47
2022-08-26T17:45:15.618Z,2.40
2022-08-26T17:47:42.389Z,2.30
2022-08-26T17:50:13.094Z,2.27
2022-08-26T17:52:41.226Z,2.40
2022-08-26T17:55:09.761Z,2.20
2022-08-26T17:57:40.654Z,2.33
2022-08-26T18:00:13.087Z,2.30
2022-08-26T18:02:40.448Z,2.37
2022-08-26T18:05:08.345Z,2.27
2022-08-26T18:07:43.594Z,2.63
2022-08-26T18:10:13.464Z,2.80
2022-08-26T18:12:41.622Z,2.30
2022-08-26T18:15:10.017Z,2.83
2022-08-26T18:17:39.253Z,2.50
2022-08-26T18:20:12.245Z,2.73
2022-08-26T18:22:39.359Z,2.27
2022-08-26T18:25:07.805Z,2.43
2022-08-26T18:27:36.158Z,2.53
2022-08-26T18:30:11.361Z,2.80
2022-08-26T18:32:40.560Z,2.77
2022-08-26T18:35:08.637Z,2.87
2022-08-26T18:37:35.625Z,2.70
2022-08-26T18:40:02.501Z,2.20
2022-08-26T18:42:30.624Z,2.77
2022-08-26T18:44:57.211Z,2.23
2022-08-26T18:47:23.891Z,2.43
2022-08-26T18:49:51.242Z,2.20
2022-08-26T18:52:18.529Z,2.10
2022-08-26T18:54:45.135Z,2.10
2022-08-26T18:57:12.167Z,2.07
2022-08-26T18:59:38.871Z,2.60
2022-08-26T19:02:05.679Z,1.83
2022-08-26T19:04:32.405Z,2.13
2022-08-26T19:06:59.535Z,2.10
2022-08-26T19:09:26.469Z,1.93
2022-08-26T19:14:21.460Z,1.60
2022-08-26T19:16:49.940Z,1.70
2022-08-26T19:19:16.717Z,1.70
2022-08-26T19:21:43.540Z,1.97
2022-08-26T19:24:15.604Z,2.07
2022-08-26T19:26:48.219Z,2.40
2022-08-26T19:31:44.112Z,2.10
2022-08-26T19:34:14.701Z,2.33
2022-08-26T19:36:45.006Z,2.60
2022-08-26T19:39:13.871Z,2.63
2022-08-26T19:41:41.053Z,2.60
2022-08-26T19:44:33.686Z,2.37
2022-08-26T19:47:00.718Z,2.50
2022-08-26T19:49:27.366Z,2.27
2022-08-26T19:51:54.213Z,2.50
2022-08-26T19:54:23.314Z,2.33
2022-08-26T19:56:50.018Z,2.13
2022-08-26T19:59:17.480Z,2.10
2022-08-26T20:01:44.456Z,2.37
2022-08-26T20:04:10.971Z,2.20
2022-08-26T20:06:37.550Z,2.10
2022-08-26T20:09:04.276Z,2.20
2022-08-26T20:11:31.209Z,2.10
2022-08-26T20:13:57.859Z,2.17
2022-08-26T20:16:24.459Z,2.13
2022-08-26T20:19:09.679Z,2.27
2022-08-26T20:21:38.992Z,2.37
2022-08-26T20:24:12.872Z,2.00
2022-08-26T20:26:42.060Z,1.73
2022-08-26T20:29:10.687Z,2.33
2022-08-26T20:31:38.086Z,2.10
2022-08-26T20:34:05.523Z,2.50
2022-08-26T20:36:32.814Z,3.37
2022-08-26T20:38:59.573Z,3.57
2022-08-26T20:41:26.462Z,3.20
2022-08-26T20:43:53.930Z,2.20
2022-08-26T20:46:24.734Z,1.97
2022-08-26T20:48:52.914Z,2.47
2022-08-26T20:51:19.625Z,2.10
2022-08-26T20:53:47.201Z,2.10
2022-08-26T20:56:15.499Z,1.90
2022-08-26T20:58:42.658Z,2.00
2022-08-26T21:01:18.735Z,1.97
2022-08-26T21:03:45.909Z,2.50
2022-08-26T21:06:13.038Z,2.10
2022-08-26T21:08:43.335Z,2.20
2022-08-26T21:11:11.601Z,3.47
2022-08-26T21:14:01.233Z,4.33
2022-08-26T21:16:25.114Z,4.73
2022-08-26T21:18:52.481Z,4.40
2022-08-26T21:21:19.506Z,4.37
2022-08-26T21:23:52.004Z,4.90
2022-08-26T21:26:18.898Z,4.40
2022-08-26T21:28:46.402Z,3.63
2022-08-26T21:31:16.641Z,2.90
2022-08-26T21:33:43.653Z,2.77
2022-08-26T21:36:12.215Z,2.93
2022-08-26T21:38:39.262Z,3.10
2022-08-26T21:41:13.035Z,2.80
2022-08-26T21:43:41.941Z,2.90
2022-08-26T21:46:14.410Z,2.87
2022-08-26T21:48:45.681Z,5.17
2022-08-26T21:51:15.712Z,4.60
2022-08-26T21:53:42.626Z,4.80
2022-08-26T21:56:12.413Z,4.37
2022-08-26T21:58:39.554Z,3.90
2022-08-26T22:01:11.390Z,3.73
2022-08-26T22:03:46.727Z,4.27
2022-08-26T22:06:15.981Z,2.70
2022-08-26T22:08:42.516Z,2.50
2022-08-26T22:11:09.636Z,2.50
2022-08-26T22:13:38.824Z,2.30
2022-08-26T22:16:06.152Z,2.43
2022-08-26T22:18:33.538Z,3.13
2022-08-26T22:21:03.924Z,2.67
2022-08-26T22:23:30.567Z,3.00
2022-08-26T22:25:58.624Z,2.20
2022-08-26T22:28:26.392Z,2.30
2022-08-26T22:30:52.994Z,2.50
2022-08-26T22:33:19.810Z,2.40
2022-08-26T22:35:48.894Z,2.37
2022-08-26T22:38:15.751Z,2.57
2022-08-26T22:40:48.066Z,2.50
2022-08-26T22:43:15.092Z,2.23
2022-08-26T22:45:45.725Z,2.37
2022-08-26T22:48:15.595Z,2.80
2022-08-26T22:50:43.302Z,2.80
2022-08-26T22:53:10.166Z,2.87
2022-08-26T22:55:36.938Z,2.60
2022-08-26T22:58:04.938Z,2.90
2022-08-26T23:00:32.644Z,3.90
2022-08-26T23:03:00.326Z,3.97
2022-08-26T23:05:27.509Z,4.27
2022-08-26T23:07:54.501Z,4.30
2022-08-26T23:10:22.647Z,3.87
2022-08-26T23:12:49.534Z,3.60
2022-08-26T23:15:16.259Z,5.80
2022-08-26T23:17:44.950Z,5.57
2022-08-26T23:20:13.273Z,4.47
2022-08-26T23:22:40.670Z,4.83
2022-08-26T23:25:10.004Z,4.30
2022-08-26T23:27:38.916Z,4.73
2022-08-26T23:30:08.818Z,5.27
2022-08-26T23:32:35.564Z,5.93
2022-08-26T23:35:02.217Z,6.00
2022-08-26T23:37:35.065Z,4.90
2022-08-26T23:40:33.477Z,4.27
2022-08-26T23:43:03.381Z,4.10
2022-08-26T23:45:31.737Z,4.40
2022-08-26T23:47:59.188Z,5.77
2022-08-26T23:50:46.372Z,4.87
2022-08-26T23:53:19.403Z,5.10
2022-08-26T23:55:52.366Z,4.70
2022-08-26T23:58:20.844Z,4.07
